Time;durP1;ratioP1;P1;durP2;ratioP2;P2;SDS_P1;SDS_P2;PMS_P1;PMS_P2;Temp;Humidity;BMP_temperature;BMP_pressure;BME280_temperature;BME280_humidity;BME280_pressure;Samples;Min_cycle;Max_cycle;Signal;HPM_P1;HPM_P2
2023/03/06 00:00:15;;;;;;;1999.90;999.90;;;;;;;1.80;100.00;97213.63;5090762;28;20025;-77
2023/03/06 00:02:40;;;;;;;1999.90;999.90;;;;;;;1.77;100.00;97201.50;5090583;28;20036;-75
2023/03/06 00:05:06;;;;;;;1999.90;999.90;;;;;;;1.79;100.00;97206.63;5090445;28;20080;-76
2023/03/06 00:07:31;;;;;;;1999.90;999.90;;;;;;;1.72;100.00;97200.66;5090416;28;20073;-75
2023/03/06 00:09:57;;;;;;;1999.90;999.90;;;;;;;1.67;100.00;97195.19;5090442;28;20044;-74
2023/03/06 00:12:22;;;;;;;1999.90;999.90;;;;;;;1.59;100.00;97193.81;5089947;28;20028;-75
2023/03/06 00:14:48;;;;;;;1999.90;999.90;;;;;;;1.59;100.00;97199.19;5091332;28;20028;-74
2023/03/06 00:17:13;;;;;;;1999.90;999.90;;;;;;;1.41;100.00;97178.81;5090598;28;20027;-75
2023/03/06 00:19:38;;;;;;;1999.90;999.90;;;;;;;1.45;100.00;97184.50;5090857;28;20028;-77
2023/03/06 00:22:04;;;;;;;1999.90;999.90;;;;;;;1.44;100.00;97183.69;5092922;28;20469;-75
2023/03/06 00:24:29;;;;;;;1999.90;999.90;;;;;;;1.56;100.00;97195.13;5096263;28;20047;-76
2023/03/06 00:26:55;;;;;;;1999.90;999.90;;;;;;;1.48;100.00;97174.03;5102872;28;20126;-76
2023/03/06 00:29:20;;;;;;;1999.90;999.90;;;;;;;1.47;100.00;97180.47;5101321;28;20028;-75
2023/03/06 00:31:46;;;;;;;1999.90;999.90;;;;;;;1.49;100.00;97174.84;5099412;28;20059;-75
2023/03/06 00:34:12;;;;;;;1999.90;999.90;;;;;;;1.46;100.00;97172.69;5093108;28;20020;-79
2023/03/06 00:36:38;;;;;;;1999.90;999.90;;;;;;;1.61;100.00;97186.28;5094402;28;20024;-76
2023/03/06 00:39:03;;;;;;;1999.90;999.90;;;;;;;1.55;100.00;97184.59;5094426;28;20464;-77
2023/03/06 00:41:29;;;;;;;1999.90;999.90;;;;;;;1.43;100.00;97165.94;5094612;28;20412;-80
2023/03/06 00:43:54;;;;;;;1999.90;999.90;;;;;;;1.40;100.00;97161.06;5088398;28;20064;-80
2023/03/06 00:46:19;;;;;;;1999.90;999.90;;;;;;;1.42;100.00;97163.47;5094129;28;20067;-77
2023/03/06 00:48:45;;;;;;;1999.90;999.90;;;;;;;1.52;100.00;97177.03;5094331;28;20468;-76
2023/03/06 00:51:10;;;;;;;1999.90;999.90;;;;;;;1.51;100.00;97170.81;5094127;28;20065;-76
2023/03/06 00:53:36;;;;;;;1999.90;999.90;;;;;;;1.58;100.00;97162.53;5093934;28;20032;-75
2023/03/06 00:56:01;;;;;;;1999.90;999.90;;;;;;;1.56;100.00;97156.59;5094164;28;20023;-74
2023/03/06 00:58:26;;;;;;;1999.90;999.90;;;;;;;1.74;100.00;97172.38;5096592;28;20076;-73
2023/03/06 01:00:52;;;;;;;1999.90;999.90;;;;;;;1.69;100.00;97169.66;5094176;28;20476;-75
2023/03/06 01:03:17;;;;;;;1999.90;999.90;;;;;;;1.65;100.00;97167.72;5093813;28;20036;-75
2023/03/06 01:05:42;;;;;;;1999.90;999.90;;;;;;;1.67;100.00;97162.84;5092518;28;20016;-75
2023/03/06 01:08:08;;;;;;;1999.90;999.90;;;;;;;1.60;100.00;97157.69;5092686;28;20065;-74
2023/03/06 01:10:37;;;;;;;1999.90;999.90;;;;;;;1.60;100.00;97152.28;5093947;28;20480;-77
2023/03/06 01:13:02;;;;;;;1999.90;999.90;;;;;;;1.57;100.00;97147.44;5094372;28;20024;-77
2023/03/06 01:15:27;;;;;;;1999.90;999.90;;;;;;;1.58;100.00;97151.75;5093094;28;20168;-76
2023/03/06 01:17:53;;;;;;;1999.90;999.90;;;;;;;1.49;100.00;97146.03;5094216;28;20035;-76
2023/03/06 01:20:19;;;;;;;1999.90;999.90;;;;;;;1.47;100.00;97156.25;5093909;28;20039;-75
2023/03/06 01:22:44;;;;;;;1999.90;999.90;;;;;;;1.51;100.00;97151.16;5094731;28;20032;-76
2023/03/06 01:25:09;;;;;;;1999.90;999.90;;;;;;;1.46;100.00;97149.25;5095644;28;20051;-76
2023/03/06 01:27:35;;;;;;;1999.90;999.90;;;;;;;1.58;100.00;97149.06;5096017;28;20153;-75
2023/03/06 01:30:01;;;;;;;1999.90;999.90;;;;;;;1.61;100.00;97146.66;5090921;28;20050;-75
2023/03/06 01:32:26;;;;;;;1999.90;999.90;;;;;;;1.70;100.00;97146.16;5073672;28;20039;-75
2023/03/06 01:34:52;;;;;;;1999.90;999.90;;;;;;;1.67;100.00;97136.72;5072534;28;20028;-75
2023/03/06 01:37:17;;;;;;;1999.90;999.90;;;;;;;1.64;100.00;97145.31;5072882;28;20510;-76
2023/03/06 01:39:43;;;;;;;1999.90;999.90;;;;;;;1.63;100.00;97137.53;5073206;28;20029;-75
2023/03/06 01:42:08;;;;;;;1999.90;999.90;;;;;;;1.73;100.00;97149.16;5073342;28;20040;-74
2023/03/06 01:44:34;;;;;;;1999.90;999.90;;;;;;;1.73;100.00;97135.69;5072884;28;20066;-74
2023/03/06 01:47:01;;;;;;;1999.90;999.90;;;;;;;1.83;100.00;97130.38;5072849;28;20477;-75
2023/03/06 01:49:33;;;;;;;1999.90;999.90;;;;;;;1.87;100.00;97134.19;5073063;28;20024;-75
2023/03/06 01:52:02;;;;;;;1999.90;999.90;;;;;;;1.89;100.00;97137.41;5074049;28;20505;-76
2023/03/06 01:54:34;;;;;;;1999.90;999.90;;;;;;;1.77;100.00;97115.25;5072997;28;20032;-75
2023/03/06 01:57:09;;;;;;;1999.90;999.90;;;;;;;1.73;100.00;97116.81;5072735;28;20048;-79
2023/03/06 01:59:37;;;;;;;;;;;;;;;1.80;100.00;97122.00;5067624;28;20035;-75
2023/03/06 02:02:05;;;;;;;1999.90;999.90;;;;;;;1.80;100.00;97112.03;5072869;28;19912;-75
2023/03/06 02:04:31;;;;;;;1999.90;999.90;;;;;;;1.77;100.00;97112.53;5072722;28;20370;-77
2023/03/06 02:06:59;;;;;;;1999.90;999.90;;;;;;;1.84;100.00;97102.34;5072431;28;20031;-77
2023/03/06 02:09:28;;;;;;;1999.90;999.90;;;;;;;1.86;100.00;97113.69;5072305;28;20447;-74
2023/03/06 02:11:54;;;;;;;1999.90;999.90;;;;;;;1.82;100.00;97107.19;5072973;28;20078;-74
2023/03/06 02:14:19;;;;;;;1999.90;999.90;;;;;;;1.80;100.00;97105.81;5072471;28;20036;-76
2023/03/06 02:16:45;;;;;;;1999.90;999.90;;;;;;;1.85;100.00;97117.44;5072322;28;20052;-75
2023/03/06 02:19:29;;;;;;;1999.90;999.90;;;;;;;1.93;100.00;97106.19;5072323;28;20067;-77
2023/03/06 02:21:54;;;;;;;1999.90;999.90;;;;;;;1.85;100.00;97103.97;5072278;28;20032;-75
2023/03/06 02:24:45;;;;;;;1999.90;999.90;;;;;;;1.88;100.00;97108.81;5085009;28;20758;-75
2023/03/06 02:27:13;;;;;;;1999.90;999.90;;;;;;;1.81;100.00;97097.47;5112547;28;20065;-75
2023/03/06 02:29:38;;;;;;;1999.90;999.90;;;;;;;1.89;100.00;97105.06;5099060;28;20123;-74
2023/03/06 02:32:04;;;;;;;1999.90;999.90;;;;;;;1.91;100.00;97097.53;5092311;28;20027;-75
2023/03/06 02:34:35;;;;;;;1999.90;999.90;;;;;;;1.96;100.00;97099.44;5092050;28;20118;-76
2023/03/06 02:37:05;;;;;;;1999.90;999.90;;;;;;;1.86;100.00;97094.81;5092254;28;20507;-74
2023/03/06 02:39:33;;;;;;;1999.90;999.90;;;;;;;1.80;100.00;97085.06;5092286;28;20024;-76
2023/03/06 02:41:58;;;;;;;1999.90;999.90;;;;;;;1.85;100.00;97093.16;5092607;28;20028;-77
2023/03/06 02:44:26;;;;;;;1999.90;999.90;;;;;;;1.91;100.00;97102.91;5092131;28;20085;-74
2023/03/06 02:46:51;;;;;;;1999.90;999.90;;;;;;;1.83;100.00;97092.63;5094387;28;20542;-76
2023/03/06 02:49:17;;;;;;;1999.90;999.90;;;;;;;1.90;100.00;97093.22;5091947;28;20036;-76
2023/03/06 02:51:42;;;;;;;1999.90;999.90;;;;;;;1.86;100.00;97083.22;5091854;28;20379;-76
2023/03/06 02:54:07;;;;;;;1999.90;999.90;;;;;;;1.80;100.00;97089.66;5091901;28;20020;-74
2023/03/06 02:56:33;;;;;;;1999.90;999.90;;;;;;;1.84;100.00;97090.75;5091744;28;20024;-76
2023/03/06 02:58:58;;;;;;;1999.90;999.90;;;;;;;1.76;100.00;97078.56;5091860;28;20024;-75
2023/03/06 03:01:24;;;;;;;1999.90;999.90;;;;;;;1.61;100.00;97086.56;5092168;28;20059;-75
2023/03/06 03:03:49;;;;;;;1999.90;999.90;;;;;;;1.66;100.00;97093.88;5091385;28;20035;-74
2023/03/06 03:06:15;;;;;;;1999.90;999.90;;;;;;;1.73;100.00;97087.19;5093666;28;20020;-75
2023/03/06 03:08:40;;;;;;;1999.90;999.90;;;;;;;1.68;100.00;97087.16;5091703;28;20044;-75
2023/03/06 03:11:08;;;;;;;1999.90;999.90;;;;;;;1.74;100.00;97091.50;5091891;28;20047;-75
2023/03/06 03:13:33;;;;;;;1999.90;999.90;;;;;;;1.72;100.00;97082.88;5092251;28;20069;-75
2023/03/06 03:16:01;;;;;;;1999.90;999.90;;;;;;;1.76;100.00;97088.53;5092781;28;20024;-75
2023/03/06 03:18:26;;;;;;;1999.90;999.90;;;;;;;1.73;100.00;97083.66;5094342;28;20583;-77
2023/03/06 03:20:52;;;;;;;1999.90;999.90;;;;;;;1.70;100.00;97079.63;5091796;28;20119;-75
2023/03/06 03:23:17;;;;;;;1999.90;999.90;;;;;;;1.67;100.00;97073.94;5091347;28;20055;-75
2023/03/06 03:25:43;;;;;;;1999.90;999.90;;;;;;;1.62;100.00;97069.34;5091511;28;20071;-76
2023/03/06 03:28:08;;;;;;;1999.90;999.90;;;;;;;1.70;100.00;97079.63;5091444;28;20036;-78
2023/03/06 03:30:33;;;;;;;1999.90;999.90;;;;;;;1.60;100.00;97064.19;5091408;28;20066;-76
2023/03/06 03:32:59;;;;;;;1999.90;999.90;;;;;;;1.72;100.00;97079.38;5091903;28;20189;-75
2023/03/06 03:35:24;;;;;;;1999.90;999.90;;;;;;;1.70;100.00;97071.53;5091475;28;20038;-76
2023/03/06 03:37:51;;;;;;;1999.90;999.90;;;;;;;1.68;100.00;97059.38;5091378;28;20412;-77
2023/03/06 03:40:17;;;;;;;1999.90;999.90;;;;;;;1.61;100.00;97062.31;5092226;28;20112;-75
2023/03/06 03:42:42;;;;;;;1999.90;999.90;;;;;;;1.57;100.00;97048.53;5092344;28;20107;-74
2023/03/06 03:45:08;;;;;;;1999.90;999.90;;;;;;;1.58;100.00;97050.19;5093169;28;20035;-76
2023/03/06 03:47:33;;;;;;;1999.90;999.90;;;;;;;1.52;100.00;97039.63;5092602;28;20105;-76
2023/03/06 03:49:58;;;;;;;1999.90;999.90;;;;;;;1.66;100.00;97050.75;5094040;28;20013;-76
2023/03/06 03:52:24;;;;;;;1999.90;999.90;;;;;;;1.64;100.00;97053.72;5096139;28;20476;-76
2023/03/06 03:54:49;;;;;;;1999.90;999.90;;;;;;;1.73;100.00;97041.34;5097512;28;20032;-75
2023/03/06 03:57:15;;;;;;;1999.90;999.90;;;;;;;1.71;100.00;97043.50;5095826;28;20028;-76
2023/03/06 03:59:40;;;;;;;1999.90;999.90;;;;;;;1.69;100.00;97051.06;5096192;28;20032;-78
2023/03/06 04:02:05;;;;;;;1999.90;999.90;;;;;;;1.63;100.00;97041.28;5097217;28;20054;-76
2023/03/06 04:04:31;;;;;;;1999.90;999.90;;;;;;;1.71;100.00;97042.69;5097386;28;20032;-76
2023/03/06 04:06:56;;;;;;;1999.90;999.90;;;;;;;1.62;100.00;97042.38;5095371;28;20024;-76
2023/03/06 04:09:22;;;;;;;1999.90;999.90;;;;;;;1.63;100.00;97050.19;5090673;28;20061;-75
2023/03/06 04:11:47;;;;;;;1999.90;999.90;;;;;;;1.54;100.00;97045.56;5090733;28;20074;-75
2023/03/06 04:14:13;;;;;;;1999.90;999.90;;;;;;;1.49;100.00;97051.75;5091094;28;20020;-74
2023/03/06 04:16:38;;;;;;;1999.90;999.90;;;;;;;1.63;100.00;97045.91;5090761;28;20123;-76
2023/03/06 04:19:04;;;;;;;1999.90;999.90;;;;;;;1.68;100.00;97035.94;5090654;28;20122;-76
2023/03/06 04:21:29;;;;;;;1999.90;999.90;;;;;;;1.66;100.00;97040.78;5090535;28;20035;-75
2023/03/06 04:23:54;;;;;;;1999.90;999.90;;;;;;;1.72;100.00;97042.44;5090614;28;20028;-77
2023/03/06 04:26:20;;;;;;;1999.90;999.90;;;;;;;1.77;100.00;97037.06;5090562;28;20362;-74
2023/03/06 04:28:45;;;;;;;1999.90;999.90;;;;;;;1.80;100.00;97039.25;5090509;28;20020;-75
2023/03/06 04:31:11;;;;;;;1999.90;999.90;;;;;;;1.77;100.00;97039.78;5091846;28;20511;-77
2023/03/06 04:33:37;;;;;;;1999.90;999.90;;;;;;;1.77;100.00;97036.25;5092668;28;20480;-78
2023/03/06 04:36:03;;;;;;;1999.90;999.90;;;;;;;1.87;100.00;97047.09;5090724;28;20028;-75
2023/03/06 04:38:28;;;;;;;1999.90;999.90;;;;;;;1.83;100.00;97040.59;5089416;28;20059;-77
2023/03/06 04:40:54;;;;;;;1999.90;999.90;;;;;;;1.81;100.00;97031.97;5091476;28;20016;-76
2023/03/06 04:43:19;;;;;;;1999.90;999.90;;;;;;;1.86;100.00;97038.19;5092806;28;20396;-76
2023/03/06 04:45:45;;;;;;;1999.90;999.90;;;;;;;1.56;100.00;97005.72;5090462;28;20024;-77
2023/03/06 04:48:15;;;;;;;1999.90;999.90;;;;;;;1.77;100.00;97029.00;5090673;28;20031;-77
2023/03/06 04:50:41;;;;;;;1999.90;999.90;;;;;;;1.76;100.00;97035.44;5090707;28;20384;-78
2023/03/06 04:53:07;;;;;;;1999.90;999.90;;;;;;;1.79;100.00;97032.22;5090692;28;20103;-77
2023/03/06 04:55:33;;;;;;;1999.90;999.90;;;;;;;1.79;100.00;97017.94;5091312;28;20016;-76
2023/03/06 04:57:58;;;;;;;1999.90;999.90;;;;;;;1.74;100.00;97005.25;5090326;28;20484;-77
2023/03/06 05:00:30;;;;;;;1999.90;999.90;;;;;;;1.74;100.00;97010.66;5090277;28;20669;-76
2023/03/06 05:02:57;;;;;;;1999.90;999.90;;;;;;;1.69;100.00;97001.72;5088843;28;20498;-75
2023/03/06 05:05:23;;;;;;;1999.90;999.90;;;;;;;1.67;100.00;97001.97;5088724;28;20549;-77
2023/03/06 05:07:48;;;;;;;1999.90;999.90;;;;;;;1.70;100.00;97003.34;5090268;28;20040;-76
2023/03/06 05:10:15;;;;;;;1999.90;999.90;;;;;;;1.60;100.00;96994.13;5093733;28;20137;-76
2023/03/06 05:12:41;;;;;;;1999.90;999.90;;;;;;;1.59;100.00;96989.03;5094504;28;20050;-76
2023/03/06 05:15:08;;;;;;;1999.90;999.90;;;;;;;1.65;100.00;96998.75;5093942;28;20028;-76
2023/03/06 05:17:33;;;;;;;1999.90;999.90;;;;;;;1.69;100.00;97007.94;5093620;28;20031;-76
2023/03/06 05:19:59;;;;;;;1999.90;999.90;;;;;;;1.66;100.00;96991.47;5093830;28;20028;-75
2023/03/06 05:22:24;;;;;;;1999.90;999.90;;;;;;;1.67;100.00;96993.09;5093605;28;20380;-76
2023/03/06 05:24:50;;;;;;;1999.90;999.90;;;;;;;1.62;100.00;96988.50;5092377;28;20032;-74
2023/03/06 05:27:15;;;;;;;1999.90;999.90;;;;;;;1.66;100.00;97003.03;5093601;28;20115;-74
2023/03/06 05:29:40;;;;;;;1999.90;999.90;;;;;;;1.67;100.00;96987.69;5093698;28;20430;-77
2023/03/06 05:32:06;;;;;;;1999.90;999.90;;;;;;;1.76;100.00;96992.31;5095901;28;20024;-75
2023/03/06 05:34:31;;;;;;;1999.90;999.90;;;;;;;1.77;100.00;96977.78;5098695;28;20039;-77
2023/03/06 05:36:57;;;;;;;1999.90;999.90;;;;;;;1.80;100.00;96976.44;5097600;28;20020;-77
2023/03/06 05:39:23;;;;;;;1999.90;999.90;;;;;;;1.87;100.00;96999.38;5094468;28;20032;-74
2023/03/06 05:41:48;;;;;;;1999.90;999.90;;;;;;;1.79;100.00;96981.00;5092897;28;20031;-77
2023/03/06 05:44:13;;;;;;;1999.90;999.90;;;;;;;1.88;100.00;97002.91;5093666;28;20024;-76
2023/03/06 05:46:39;;;;;;;1999.90;999.90;;;;;;;1.85;100.00;97004.22;5078741;28;20480;-76
2023/03/06 05:49:04;;;;;;;1999.90;999.90;;;;;;;1.83;100.00;96995.59;5072901;28;20044;-75
2023/03/06 05:51:30;;;;;;;1999.90;999.90;;;;;;;1.90;100.00;96998.06;5072612;28;20129;-76
2023/03/06 05:53:55;;;;;;;1999.90;999.90;;;;;;;1.84;100.00;97005.31;5071739;28;20020;-77
2023/03/06 05:56:20;;;;;;;1999.90;999.90;;;;;;;1.83;100.00;97003.69;5073531;28;20084;-75
2023/03/06 05:58:46;;;;;;;1999.90;999.90;;;;;;;1.95;100.00;97012.34;5090680;28;20443;-77
2023/03/06 06:01:17;;;;;;;1999.90;999.90;;;;;;;2.03;100.00;97014.56;5095894;28;20024;-76
2023/03/06 06:03:43;;;;;;;1999.90;999.90;;;;;;;2.07;100.00;97020.22;5093077;28;20399;-74
2023/03/06 06:06:11;;;;;;;1999.90;999.90;;;;;;;2.11;100.00;97005.94;5095018;28;20032;-74
2023/03/06 06:08:37;;;;;;;1999.90;999.90;;;;;;;2.06;100.00;97008.63;5094311;28;20058;-76
2023/03/06 06:11:07;;;;;;;1999.90;999.90;;;;;;;2.07;100.00;97004.03;5091745;28;20024;-75
2023/03/06 06:13:33;;;;;;;1999.90;999.90;;;;;;;2.11;100.00;97005.94;5092906;28;20035;-75
2023/03/06 06:15:58;;;;;;;1999.90;999.90;;;;;;;2.00;100.00;96988.13;5092313;28;20048;-75
2023/03/06 06:18:24;;;;;;;1999.90;999.90;;;;;;;1.94;100.00;96994.53;5093209;28;20106;-75
2023/03/06 06:20:49;;;;;;;1999.90;999.90;;;;;;;2.08;100.00;97017.25;5092784;28;20024;-75
2023/03/06 06:23:14;;;;;;;1999.90;999.90;;;;;;;2.14;100.00;97013.50;5091554;28;20043;-77
2023/03/06 06:25:40;;;;;;;1999.90;999.90;;;;;;;2.22;100.00;97003.28;5093554;28;20085;-76
2023/03/06 06:28:05;;;;;;;1999.90;999.90;;;;;;;2.25;100.00;97005.44;5095446;28;20396;-78
2023/03/06 06:30:32;;;;;;;1999.90;999.90;;;;;;;2.27;100.00;96992.50;5093411;28;20028;-77
2023/03/06 06:32:58;;;;;;;1999.90;999.90;;;;;;;2.41;100.00;97013.28;5092464;28;20028;-77
2023/03/06 06:35:24;;;;;;;1999.90;999.90;;;;;;;2.38;100.00;97011.13;5092306;28;20024;-76
2023/03/06 06:37:49;;;;;;;1999.90;999.90;;;;;;;2.35;100.00;97010.88;5092129;28;20860;-77
2023/03/06 06:40:15;;;;;;;1999.90;999.90;;;;;;;2.24;100.00;97015.41;5092715;28;20051;-77
2023/03/06 06:42:41;;;;;;;1999.90;999.90;;;;;;;2.37;100.00;97014.94;5091604;28;20035;-75
2023/03/06 06:45:09;;;;;;;1999.90;999.90;;;;;;;2.31;100.00;97001.69;5091464;28;20035;-76
2023/03/06 06:47:37;;;;;;;1999.90;999.90;;;;;;;2.32;100.00;97003.31;5090431;28;20080;-77
2023/03/06 06:50:02;;;;;;;1999.90;999.90;;;;;;;2.43;100.00;97016.56;5090678;28;20099;-76
2023/03/06 06:52:28;;;;;;;1999.90;999.90;;;;;;;2.52;100.00;97001.47;5091572;28;20552;-76
2023/03/06 06:54:53;;;;;;;1999.90;999.90;;;;;;;2.61;100.00;97001.72;5090314;28;20243;-76
2023/03/06 06:57:19;;;;;;;1999.90;999.90;;;;;;;2.65;100.00;97000.13;5091336;28;20115;-75
2023/03/06 06:59:44;;;;;;;1999.90;999.90;;;;;;;2.69;100.00;96995.81;5091734;28;20023;-76
2023/03/06 07:02:11;;;;;;;1999.90;999.90;;;;;;;2.59;100.00;96998.50;5091285;28;20035;-76
2023/03/06 07:04:38;;;;;;;1999.90;999.90;;;;;;;2.68;100.00;96999.59;5091518;28;20122;-76
2023/03/06 07:07:04;;;;;;;1999.90;999.90;;;;;;;2.74;100.00;97017.41;5089940;28;20024;-77
2023/03/06 07:09:30;;;;;;;1999.90;999.90;;;;;;;2.89;100.00;97016.59;5090982;28;20059;-77
2023/03/06 07:11:55;;;;;;;1999.90;999.90;;;;;;;3.06;100.00;97012.56;5091267;28;20067;-77
2023/03/06 07:14:21;;;;;;;1999.90;999.90;;;;;;;3.15;100.00;97007.44;5091788;28;20081;-76
2023/03/06 07:16:46;;;;;;;1999.90;999.90;;;;;;;3.32;100.00;97002.53;5091085;28;20110;-75
2023/03/06 07:19:11;;;;;;;1999.90;999.90;;;;;;;3.43;100.00;96987.13;5090917;28;20050;-77
2023/03/06 07:21:37;;;;;;;1999.90;999.90;;;;;;;3.53;100.00;97006.03;5091000;28;20110;-76
2023/03/06 07:24:02;;;;;;;1999.90;999.90;;;;;;;3.74;100.00;97007.59;5088438;28;20085;-75
2023/03/06 07:26:29;;;;;;;1999.90;999.90;;;;;;;3.93;100.00;97013.19;5089746;28;20452;-75
2023/03/06 07:28:54;;;;;;;1999.90;999.90;;;;;;;3.72;100.00;97005.16;5087061;28;20077;-77
2023/03/06 07:31:23;;;;;;;1999.90;999.90;;;;;;;3.55;100.00;97006.53;5089549;28;20020;-76
2023/03/06 07:33:49;;;;;;;1999.90;999.90;;;;;;;3.46;100.00;97005.50;5091952;28;20024;-77
2023/03/06 07:36:14;;;;;;;1999.90;999.90;;;;;;;3.28;100.00;97006.06;5088779;28;20385;-77
2023/03/06 07:38:40;;;;;;;1999.90;999.90;;;;;;;3.28;100.00;97011.47;5089806;28;20028;-75
2023/03/06 07:41:08;;;;;;;1999.90;999.90;;;;;;;3.27;100.00;97004.44;5090023;28;20055;-77
2023/03/06 07:43:33;;;;;;;1999.90;999.90;;;;;;;3.33;100.00;97009.56;5087362;28;20066;-77
2023/03/06 07:45:59;;;;;;;1999.90;999.90;;;;;;;3.45;100.00;97014.66;5088415;28;20020;-78
2023/03/06 07:48:25;;;;;;;1999.90;999.90;;;;;;;3.58;100.00;97022.22;5089927;28;20028;-78
2023/03/06 07:51:03;;;;;;;1999.90;999.90;;;;;;;3.56;100.00;97011.69;5090156;28;20020;-77
2023/03/06 07:53:28;;;;;;;1999.90;999.90;;;;;;;3.46;100.00;97010.91;5090483;28;20050;-78
2023/03/06 07:55:54;;;;;;;1999.90;999.90;;;;;;;3.34;100.00;97023.88;5089764;28;20020;-79
2023/03/06 07:58:19;;;;;;;1999.90;999.90;;;;;;;3.39;100.00;97015.75;5090156;28;20020;-77
2023/03/06 08:00:45;;;;;;;1999.90;999.90;;;;;;;3.26;100.00;97005.53;5092210;28;20024;-79
2023/03/06 08:03:11;;;;;;;1999.90;999.90;;;;;;;3.44;100.00;97019.28;5090188;28;20081;-78
2023/03/06 08:05:37;;;;;;;1999.90;999.90;;;;;;;3.45;100.00;97020.06;5091193;28;20024;-79
2023/03/06 08:08:02;;;;;;;1999.90;999.90;;;;;;;3.53;100.00;97023.06;5095771;28;20408;-80
2023/03/06 08:10:28;;;;;;;1999.90;999.90;;;;;;;3.60;100.00;97020.84;5094761;28;20066;-78
2023/03/06 08:12:53;;;;;;;1999.90;999.90;;;;;;;3.56;100.00;97016.28;5089382;28;20047;-77
2023/03/06 08:15:19;;;;;;;1999.90;999.90;;;;;;;3.62;100.00;97015.19;5090776;28;20580;-76
2023/03/06 08:17:44;;;;;;;1999.90;999.90;;;;;;;3.67;100.00;97020.56;5090484;28;20115;-77
2023/03/06 08:20:10;;;;;;;1999.90;999.90;;;;;;;3.57;100.00;97007.88;5091019;28;20028;-77
2023/03/06 08:22:36;;;;;;;1999.90;999.90;;;;;;;3.58;100.00;97019.53;5090306;28;20377;-77
2023/03/06 08:25:04;;;;;;;1999.90;999.90;;;;;;;3.53;100.00;97008.72;5090724;28;20032;-76
2023/03/06 08:27:30;;;;;;;1999.90;999.90;;;;;;;3.61;100.00;97008.16;5089510;28;20583;-76
2023/03/06 08:29:56;;;;;;;1999.90;999.90;;;;;;;3.47;100.00;97007.94;5090738;28;20036;-77
2023/03/06 08:32:21;;;;;;;1999.90;999.90;;;;;;;3.57;100.00;97004.41;5091033;28;20167;-80
2023/03/06 08:34:46;;;;;;;1999.90;999.90;;;;;;;3.56;100.00;97006.28;5091054;28;20055;-79
2023/03/06 08:37:12;;;;;;;1999.90;999.90;;;;;;;3.78;100.00;97012.19;5092653;28;20035;-79
2023/03/06 08:39:37;;;;;;;1999.90;999.90;;;;;;;3.88;100.00;97003.22;5092126;28;20078;-77
2023/03/06 08:42:02;;;;;;;1999.90;999.90;;;;;;;3.99;100.00;97014.78;5093344;28;20544;-79
2023/03/06 08:44:28;;;;;;;1999.90;999.90;;;;;;;4.07;100.00;97017.72;5093039;28;20036;-77
2023/03/06 08:46:53;;;;;;;1999.90;999.90;;;;;;;4.13;100.00;97008.53;5094665;28;20039;-79
2023/03/06 08:49:19;;;;;;;1999.90;999.90;;;;;;;4.37;100.00;97007.88;5094603;28;20076;-76
2023/03/06 08:51:44;;;;;;;1999.90;999.90;;;;;;;4.32;100.00;97014.13;5094478;28;20469;-77
2023/03/06 08:54:11;;;;;;;1999.90;999.90;;;;;;;4.24;100.00;97007.38;5095319;28;20150;-75
2023/03/06 08:56:36;;;;;;;1999.90;999.90;;;;;;;3.99;100.00;97004.78;5095991;28;20070;-75
2023/03/06 08:59:04;;;;;;;1999.90;999.90;;;;;;;4.01;100.00;97007.25;5097467;28;20830;-77
2023/03/06 09:01:32;;;;;;;1999.90;999.90;;;;;;;4.11;100.00;97012.56;5096108;28;20111;-78
2023/03/06 09:04:00;;;;;;;1999.90;999.90;;;;;;;4.13;100.00;97005.84;5092492;28;20168;-76
2023/03/06 09:06:29;;;;;;;1999.90;999.90;;;;;;;4.18;100.00;97008.50;5094413;28;20027;-75
2023/03/06 09:08:55;;;;;;;1999.90;999.90;;;;;;;4.28;100.00;96997.63;5092562;28;20435;-77
2023/03/06 09:11:23;;;;;;;1999.90;999.90;;;;;;;4.40;100.00;97001.88;5093770;28;20020;-75
2023/03/06 09:13:48;;;;;;;1999.90;999.90;;;;;;;4.62;100.00;96996.88;5094371;28;20020;-76
2023/03/06 09:16:14;;;;;;;1999.90;999.90;;;;;;;4.88;100.00;96984.78;5096713;28;20046;-78
2023/03/06 09:18:39;;;;;;;1999.90;999.90;;;;;;;5.15;100.00;96984.28;5102617;28;20020;-84
2023/03/06 09:21:05;;;;;;;1999.90;999.90;;;;;;;5.31;100.00;96993.91;5103305;28;20035;-80
2023/03/06 09:23:31;;;;;;;1999.90;999.90;;;;;;;5.51;100.00;97003.75;5102024;28;20426;-78
2023/03/06 09:25:59;;;;;;;1999.90;999.90;;;;;;;5.74;100.00;96992.91;5095484;28;20114;-79
2023/03/06 09:28:24;;;;;;;1999.90;999.90;;;;;;;5.87;100.00;96992.25;5102184;28;20020;-77
2023/03/06 09:30:50;;;;;;;1999.90;999.90;;;;;;;5.96;100.00;97007.91;5102513;28;20384;-78
2023/03/06 09:33:17;;;;;;;1999.90;999.90;;;;;;;5.85;100.00;97004.47;5099947;28;20106;-77
2023/03/06 09:35:54;;;;;;;1999.90;999.90;;;;;;;5.91;100.00;97006.06;5093102;28;20469;-77
2023/03/06 09:38:23;;;;;;;1999.90;999.90;;;;;;;6.13;100.00;97009.06;5107947;28;20032;-81
2023/03/06 09:40:59;;;;;;;1999.90;999.90;;;;;;;6.43;100.00;97007.84;5101717;28;20391;-80
2023/03/06 09:43:30;;;;;;;1999.90;999.90;;;;;;;6.18;100.00;97002.75;5097654;28;20039;-77
2023/03/06 09:45:57;;;;;;;1999.90;999.90;;;;;;;5.96;100.00;96994.31;5100079;28;20400;-79
2023/03/06 09:48:51;;;;;;;1999.90;999.90;;;;;;;5.80;100.00;97001.78;5107554;28;20032;-80
2023/03/06 09:51:21;;;;;;;1999.90;999.90;;;;;;;5.74;100.00;96997.53;5106047;28;20046;-78
2023/03/06 09:53:56;;;;;;;1999.90;999.90;;;;;;;5.91;100.00;96992.50;5095424;28;20434;-79
2023/03/06 09:56:30;;;;;;;1999.90;999.90;;;;;;;6.24;100.00;96990.72;5099190;28;20044;-77
2023/03/06 09:59:11;;;;;;;1999.90;999.90;;;;;;;6.05;100.00;96993.41;5102328;28;20061;-77
2023/03/06 10:01:40;;;;;;;1999.90;999.90;;;;;;;6.08;100.00;96981.97;5107856;28;20038;-78
2023/03/06 10:04:38;;;;;;;1999.90;999.90;;;;;;;6.48;100.00;96975.22;5079281;28;20488;-79
2023/03/06 10:07:12;;;;;;;1999.90;999.90;;;;;;;7.75;100.00;96984.78;5101090;28;20039;-80
2023/03/06 10:09:44;;;;;;;1999.90;999.90;;;;;;;7.82;100.00;96960.69;5104154;28;20484;-78
2023/03/06 10:12:37;;;;;;;1999.90;999.90;;;;;;;7.92;100.00;96976.84;5079141;28;20019;-77
2023/03/06 10:15:15;;;;;;;1999.90;999.90;;;;;;;8.03;100.00;96973.59;5102785;28;20039;-76
2023/03/06 10:17:41;;;;;;;1999.90;999.90;;;;;;;7.84;100.00;96985.69;5114763;28;20024;-76
2023/03/06 10:20:22;;;;;;;1999.90;999.90;;;;;;;7.68;100.00;96981.66;5096913;28;20020;-77
2023/03/06 10:23:27;;;;;;;1999.90;999.90;;;;;;;7.32;100.00;96974.13;5102330;28;20815;-79
2023/03/06 10:26:09;;;;;;;1999.90;999.90;;;;;;;7.44;100.00;96970.94;5109668;28;20392;-76
2023/03/06 10:28:37;;;;;;;1999.90;999.90;;;;;;;7.54;100.00;96965.31;5099438;28;20028;-77
2023/03/06 10:31:15;;;;;;;1999.90;999.90;;;;;;;7.47;100.00;96971.16;5100632;28;20028;-76
2023/03/06 10:33:52;;;;;;;1999.90;999.90;;;;;;;7.33;100.00;96962.13;5107541;28;20032;-77
2023/03/06 10:36:19;;;;;;;1999.90;999.90;;;;;;;6.84;100.00;96964.59;5097375;28;20084;-77
2023/03/06 10:38:47;;;;;;;1999.90;999.90;;;;;;;7.21;100.00;96956.38;5103745;28;20020;-80
2023/03/06 10:41:12;;;;;;;1999.90;999.90;;;;;;;7.38;100.00;96953.91;5113363;28;20023;-79
2023/03/06 10:43:40;;;;;;;1999.90;999.90;;;;;;;7.46;100.00;96945.03;5103246;28;20032;-77
2023/03/06 10:46:07;;;;;;;1999.90;999.90;;;;;;;7.37;100.00;96948.75;5083817;28;20050;-78
2023/03/06 10:48:35;;;;;;;1999.90;999.90;;;;;;;6.47;100.00;96941.81;5104102;28;20119;-77
2023/03/06 10:51:22;;;;;;;1999.90;999.90;;;;;;;6.55;100.00;96944.97;5102868;28;20053;-76
2023/03/06 10:53:59;;;;;;;1999.90;999.90;;;;;;;6.62;100.00;96945.38;5095068;28;20024;-77